createdAt,value
2022-10-28T08:13:40.774Z,9.32
2022-10-28T08:18:40.650Z,10.90
2022-10-28T08:21:13.185Z,10.80
2022-10-28T08:23:46.600Z,6.82
2022-10-28T08:28:44.817Z,10.40
2022-10-28T08:51:58.019Z,9.90
2022-10-28T08:54:31.976Z,11.88
2022-10-28T08:57:02.408Z,12.25
2022-10-28T09:04:39.609Z,12.13
2022-10-28T09:07:10.753Z,12.77
2022-10-28T09:09:40.140Z,13.23
2022-10-28T09:12:23.254Z,11.50
2022-10-28T09:15:13.133Z,10.55
2022-10-28T09:17:52.501Z,10.80
2022-10-28T09:20:24.942Z,9.73
2022-10-28T09:22:57.998Z,10.45
2022-10-28T09:25:35.645Z,8.40
2022-10-28T09:28:28.223Z,9.80
2022-10-28T09:31:06.732Z,10.98
2022-10-28T09:41:17.240Z,9.90
2022-10-28T09:43:51.640Z,11.25
2022-10-28T09:46:26.234Z,10.68
2022-10-28T09:53:59.397Z,7.50
2022-10-28T10:04:00.755Z,9.27
2022-10-28T10:14:01.233Z,9.80
2022-10-28T10:16:40.848Z,12.80
2022-10-28T10:19:12.081Z,11.50
2022-10-28T10:21:46.332Z,10.27
2022-10-28T10:24:24.493Z,11.85
2022-10-28T10:26:53.360Z,9.70
2022-10-28T10:29:24.200Z,10.13
2022-10-28T10:32:16.198Z,11.30
2022-10-28T10:34:47.890Z,11.68
2022-10-28T10:37:22.269Z,6.03
2022-10-28T10:40:04.929Z,9.07
2022-10-28T10:42:42.520Z,11.25
2022-10-28T10:58:05.968Z,8.85
2022-10-28T11:00:39.830Z,8.88
2022-10-28T11:03:14.870Z,11.20
2022-10-28T11:06:05.309Z,8.18
2022-10-28T11:08:42.713Z,9.82
2022-10-28T11:11:14.622Z,10.90
2022-10-28T11:13:46.099Z,11.32
2022-10-28T11:16:22.827Z,20.15
2022-10-28T11:18:52.840Z,13.80
2022-10-28T11:21:35.283Z,8.77
2022-10-28T11:24:18.504Z,9.25
2022-10-28T11:26:55.621Z,10.65
2022-10-28T11:29:24.310Z,8.95
2022-10-28T11:32:24.084Z,10.07
2022-10-28T11:35:07.222Z,10.25
2022-10-28T11:37:51.875Z,8.52
2022-10-28T11:40:32.340Z,11.55
2022-10-28T11:45:40.663Z,26.40
2022-10-28T11:48:23.689Z,14.20
2022-10-28T11:51:08.489Z,8.07
2022-10-28T14:12:52.252Z,12.07
2022-10-28T14:44:59.810Z,15.00
2022-10-28T14:47:48.439Z,10.45
2022-10-28T14:50:23.330Z,10.30
2022-10-28T14:52:54.848Z,11.38
2022-10-28T14:55:27.744Z,11.82
2022-10-28T15:01:17.730Z,9.23
2022-10-28T15:03:48.647Z,10.02
2022-10-28T15:06:32.585Z,9.88
2022-10-28T15:09:12.018Z,13.13
2022-10-28T15:11:44.767Z,10.18
2022-10-28T15:14:25.774Z,13.18
2022-10-28T15:16:58.354Z,12.10
2022-10-28T15:19:30.690Z,9.60
2022-10-28T15:22:03.602Z,12.95
2022-10-28T15:24:34.571Z,13.70
2022-10-28T15:27:02.864Z,12.93
2022-10-28T15:29:33.818Z,10.17
2022-10-28T15:32:16.243Z,12.43
2022-10-28T15:34:47.401Z,8.93
2022-10-28T15:37:18.998Z,10.38
2022-10-28T15:39:48.354Z,10.95
2022-10-28T15:42:38.212Z,14.40
2022-10-28T15:45:07.719Z,12.57
2022-10-28T21:53:27.464Z,17.02
2022-10-28T21:56:03.827Z,19.92
2022-10-28T21:58:36.423Z,18.88
2022-10-28T22:01:06.582Z,21.88
2022-10-28T22:06:03.292Z,18.08
2022-10-28T22:08:33.168Z,20.38
2022-10-28T22:11:06.568Z,20.98
2022-10-28T22:13:35.429Z,21.50
2022-10-28T22:16:08.200Z,16.95
2022-10-28T22:18:37.826Z,25.75
2022-10-28T22:21:07.536Z,17.73
2022-10-28T22:23:37.232Z,20.80
2022-10-28T22:26:08.166Z,33.88
2022-10-28T22:28:36.736Z,26.48
2022-10-28T22:31:07.277Z,27.45
2022-10-28T22:33:35.732Z,21.63
2022-10-28T22:36:06.125Z,15.93
2022-10-28T22:38:36.325Z,16.20
2022-10-28T22:41:08.580Z,15.50
2022-10-28T22:43:36.900Z,15.65
2022-10-28T22:46:07.710Z,16.58
2022-10-28T22:48:36.046Z,18.17
2022-10-28T22:51:04.844Z,15.90
2022-10-28T22:53:33.425Z,18.33
2022-10-28T22:56:03.125Z,21.33
2022-10-28T22:58:31.319Z,22.00
2022-10-28T23:01:07.409Z,25.40
2022-10-28T23:03:40.284Z,15.15
2022-10-28T23:06:12.235Z,15.82
2022-10-28T23:08:41.478Z,18.08
2022-10-28T23:11:11.914Z,14.45
2022-10-28T23:13:40.439Z,16.35
2022-10-28T23:16:10.861Z,19.90
2022-10-28T23:18:39.462Z,16.45
2022-10-28T23:21:10.788Z,16.10
2022-10-28T23:23:39.102Z,15.57
2022-10-28T23:26:07.960Z,18.20
2022-10-28T23:28:37.549Z,19.48
2022-10-28T23:33:36.805Z,14.18
2022-10-28T23:36:07.511Z,15.32
2022-10-28T23:38:35.704Z,12.93
2022-10-28T23:41:07.939Z,13.15
2022-10-28T23:43:37.926Z,15.77
2022-10-28T23:51:05.433Z,18.83
2022-10-28T23:53:33.755Z,14.90
2022-10-28T23:56:01.991Z,14.95
2022-10-28T23:58:30.253Z,15.30
